createdAt,value
2023-09-08T00:10:40.332Z,29.69
2023-09-08T00:25:42.600Z,29.46
2023-09-08T00:40:44.902Z,29.11
2023-09-08T00:55:47.107Z,28.02
2023-09-08T01:10:49.393Z,27.73
2023-09-08T01:25:51.752Z,27.06
2023-09-08T01:40:53.916Z,26.25
2023-09-08T01:55:56.045Z,25.84
2023-09-08T02:10:58.438Z,25.18
2023-09-08T02:26:00.849Z,24.61
2023-09-08T02:41:03.038Z,23.7
2023-09-08T02:56:05.670Z,22.82
2023-09-08T03:11:07.848Z,22.87
2023-09-08T03:26:10.983Z,22.7
2023-09-08T03:41:13.208Z,22.8
2023-09-08T03:56:15.372Z,22.33
2023-09-08T04:11:17.530Z,21.84
2023-09-08T04:26:19.765Z,21.48
2023-09-08T04:41:21.892Z,21.21
2023-09-08T04:56:24.040Z,20.77
2023-09-08T05:11:26.173Z,20.55
2023-09-08T05:26:28.618Z,20.42
2023-09-08T05:41:30.799Z,20.07
2023-09-08T05:56:33.017Z,19.89
2023-09-08T06:11:35.162Z,19.71
2023-09-08T06:26:37.614Z,19.38
2023-09-08T06:41:39.799Z,18.9
2023-09-08T06:56:42.069Z,18.93
2023-09-08T07:11:44.324Z,18.57
2023-09-08T07:26:46.796Z,18.06
2023-09-08T07:41:48.949Z,18.37
2023-09-08T07:56:51.142Z,18.4
2023-09-08T08:11:53.378Z,18.38
2023-09-08T08:26:55.581Z,17.97
2023-09-08T08:41:57.760Z,18.36
2023-09-08T08:56:59.890Z,17.5
2023-09-08T09:12:02.345Z,17.56
2023-09-08T09:27:04.767Z,17.98
2023-09-08T09:42:08.981Z,17.56
2023-09-08T09:57:11.126Z,17.36
2023-09-08T10:12:13.521Z,17.02
2023-09-08T10:27:15.674Z,16.92
2023-09-08T10:42:17.956Z,16.74
2023-09-08T10:57:20.198Z,16.02
2023-09-08T11:12:22.380Z,16.39
2023-09-08T11:27:24.654Z,16.32
2023-09-08T11:42:26.782Z,16.4
2023-09-08T11:57:28.841Z,16.33
2023-09-08T12:12:30.929Z,15.99
2023-09-08T12:27:33.100Z,15.3
2023-09-08T12:42:37.459Z,15.52
2023-09-08T12:57:46.942Z,15.39
2023-09-08T13:12:49.072Z,15.21
2023-09-08T13:27:51.377Z,14.99
2023-09-08T13:42:53.595Z,15.12
2023-09-08T13:57:56.340Z,15.06
2023-09-08T14:12:58.936Z,15.09
2023-09-08T14:28:01.942Z,16.06
2023-09-08T14:43:04.483Z,16.41
2023-09-08T14:58:06.992Z,23.81
2023-09-08T15:13:09.081Z,29
2023-09-08T15:28:11.132Z,32.9
2023-09-08T15:43:13.821Z,31.28
2023-09-08T15:58:16.009Z,27.21
2023-09-08T16:13:18.127Z,29.58
2023-09-08T16:28:20.306Z,30.37
2023-09-08T16:43:22.482Z,32.64
2023-09-08T16:58:24.609Z,29.65
2023-09-08T17:13:26.646Z,28.58
2023-09-08T17:28:28.845Z,28.9
2023-09-08T17:43:31.700Z,28.86
2023-09-08T17:58:33.826Z,29.82
2023-09-08T18:13:36.296Z,28.96
2023-09-08T18:28:38.674Z,27.55
2023-09-08T18:43:41.056Z,28.03
2023-09-08T18:58:43.951Z,26.53
2023-09-08T19:13:46.149Z,26.78
2023-09-08T19:28:48.351Z,28.81
2023-09-08T19:43:50.420Z,29.96
2023-09-08T19:58:52.678Z,31.13
2023-09-08T20:13:55.642Z,31.72
2023-09-08T20:28:58.060Z,30.66
2023-09-08T20:44:00.286Z,30.04
2023-09-08T20:59:02.302Z,29.3
2023-09-08T21:14:04.420Z,28.17
2023-09-08T21:29:06.684Z,28.11
2023-09-08T21:44:08.758Z,26.58
2023-09-08T21:59:10.901Z,27.94
2023-09-08T22:14:13.097Z,27.95
2023-09-08T22:29:15.230Z,28.01
2023-09-08T22:44:17.368Z,29.32
2023-09-08T22:59:19.363Z,30.61
2023-09-08T23:14:21.552Z,29.7
2023-09-08T23:29:23.541Z,29.97
2023-09-08T23:44:25.743Z,29.74
2023-09-08T23:59:27.644Z,31.01
